TimeCST,TemperatureF,Dew PointF,Humidity,Sea Level PressureIn,VisibilityMPH,Wind Direction,Wind SpeedMPH,Gust SpeedMPH,PrecipitationIn,Events,Conditions,WindDirDegrees,DateUTC
12:15 AM,17.6,10.4,73,29.94,10.0,West,23.0,32.2,N/A,,Scattered Clouds,280,2013-02-19 06:15:00
12:35 AM,17.6,10.4,73,29.94,10.0,West,21.9,32.2,N/A,,Scattered Clouds,280,2013-02-19 06:35:00
12:55 AM,17.6,10.4,73,29.95,10.0,WNW,25.3,29.9,N/A,,Mostly Cloudy,290,2013-02-19 06:55:00
1:15 AM,17.6,10.4,73,29.96,10.0,WNW,20.7,28.8,N/A,,Mostly Cloudy,290,2013-02-19 07:15:00
1:35 AM,17.6,10.4,73,29.96,10.0,WNW,20.7,26.5,N/A,,Overcast,290,2013-02-19 07:35:00
1:55 AM,17.6,10.4,73,29.97,10.0,WNW,21.9,27.6,N/A,,Mostly Cloudy,290,2013-02-19 07:55:00
2:15 AM,15.8,8.6,73,29.98,10.0,WNW,24.2,34.5,N/A,,Scattered Clouds,300,2013-02-19 08:15:00
2:35 AM,15.8,8.6,73,29.99,10.0,WNW,16.1,32.2,N/A,,Scattered Clouds,290,2013-02-19 08:35:00
2:55 AM,14.0,8.6,79,29.99,10.0,WNW,24.2,29.9,N/A,,Mostly Cloudy,290,2013-02-19 08:55:00
3:15 AM,14.0,8.6,79,30.00,10.0,WNW,20.7,26.5,N/A,,Overcast,290,2013-02-19 09:15:00
3:35 AM,14.0,8.6,79,30.01,10.0,WNW,17.3,31.1,N/A,,Overcast,290,2013-02-19 09:35:00
3:55 AM,14.0,8.6,79,30.01,10.0,WNW,21.9,28.8,N/A,,Overcast,290,2013-02-19 09:55:00
4:15 AM,14.0,8.6,79,30.02,10.0,WNW,26.5,34.5,N/A,,Overcast,300,2013-02-19 10:15:00
4:35 AM,14.0,8.6,79,30.03,10.0,WNW,19.6,31.1,N/A,,Overcast,300,2013-02-19 10:35:00
4:55 AM,12.2,6.8,79,30.04,10.0,WNW,23.0,32.2,N/A,,Overcast,300,2013-02-19 10:55:00
5:15 AM,12.2,6.8,79,30.05,10.0,WNW,18.4,33.4,N/A,,Overcast,300,2013-02-19 11:15:00
5:55 AM,12.2,6.8,79,30.06,10.0,WNW,24.2,32.2,N/A,,Overcast,300,2013-02-19 11:55:00
6:15 AM,14.0,6.8,73,30.06,10.0,WNW,24.2,32.2,N/A,,Overcast,300,2013-02-19 12:15:00
6:35 AM,14.0,6.8,73,30.07,10.0,WNW,24.2,34.5,N/A,,Overcast,300,2013-02-19 12:35:00
6:55 AM,14.0,6.8,73,30.08,10.0,NW,28.8,36.8,N/A,,Overcast,310,2013-02-19 12:55:00
7:15 AM,14.0,6.8,73,30.09,10.0,NW,31.1,38.0,N/A,,Overcast,310,2013-02-19 13:15:00
7:35 AM,12.2,6.8,79,30.10,10.0,WNW,24.2,36.8,N/A,,Overcast,300,2013-02-19 13:35:00
7:55 AM,12.2,5.0,73,30.11,10.0,NW,24.2,39.1,N/A,,Overcast,310,2013-02-19 13:55:00
8:15 AM,12.2,5.0,73,30.12,10.0,WNW,26.5,38.0,N/A,,Overcast,300,2013-02-19 14:15:00
8:35 AM,12.2,5.0,73,30.13,10.0,WNW,29.9,36.8,N/A,,Overcast,300,2013-02-19 14:35:00
8:55 AM,14.0,6.8,73,30.14,10.0,WNW,23.0,33.4,N/A,,Overcast,300,2013-02-19 14:55:00
9:35 AM,15.8,6.8,68,30.15,10.0,NW,24.2,31.1,N/A,,Mostly Cloudy,310,2013-02-19 15:35:00
9:55 AM,15.8,6.8,68,30.16,10.0,WNW,23.0,28.8,N/A,,Mostly Cloudy,300,2013-02-19 15:55:00
10:15 AM,15.8,6.8,68,30.17,10.0,WNW,19.6,28.8,N/A,,Overcast,300,2013-02-19 16:15:00
10:35 AM,17.6,6.8,63,30.18,10.0,NW,23.0,29.9,N/A,,Mostly Cloudy,310,2013-02-19 16:35:00
10:55 AM,17.6,6.8,63,30.18,10.0,West,23.0,27.6,N/A,,Scattered Clouds,280,2013-02-19 16:55:00
11:15 AM,17.6,6.8,63,30.19,10.0,WNW,21.9,28.8,N/A,,Mostly Cloudy,300,2013-02-19 17:15:00
11:35 AM,19.4,8.6,63,30.19,10.0,NW,19.6,28.8,N/A,,Scattered Clouds,310,2013-02-19 17:35:00
11:55 AM,19.4,8.6,63,30.19,10.0,WNW,24.2,31.1,N/A,,Scattered Clouds,300,2013-02-19 17:55:00
12:15 PM,19.4,8.6,63,30.20,10.0,WNW,18.4,31.1,N/A,,Scattered Clouds,290,2013-02-19 18:15:00
12:35 PM,21.2,8.6,58,30.19,10.0,WNW,24.2,31.1,N/A,,Clear,290,2013-02-19 18:35:00
12:55 PM,21.2,8.6,58,30.20,10.0,WNW,21.9,32.2,N/A,,Clear,300,2013-02-19 18:55:00
1:15 PM,23.0,8.6,54,30.19,10.0,NW,23.0,28.8,N/A,,Clear,310,2013-02-19 19:15:00
1:35 PM,24.8,8.6,50,30.19,10.0,WNW,24.2,31.1,N/A,,Clear,290,2013-02-19 19:35:00
1:55 PM,24.8,8.6,50,30.19,10.0,WNW,26.5,29.9,N/A,,Clear,290,2013-02-19 19:55:00
2:15 PM,24.8,8.6,50,30.19,10.0,WNW,23.0,31.1,N/A,,Clear,290,2013-02-19 20:15:00
2:35 PM,24.8,8.6,50,30.19,10.0,NW,27.6,33.4,N/A,,Clear,310,2013-02-19 20:35:00
2:55 PM,26.6,8.6,47,30.20,10.0,WNW,18.4,28.8,N/A,,Clear,300,2013-02-19 20:55:00
3:15 PM,26.6,6.8,43,30.20,10.0,WNW,21.9,32.2,N/A,,Clear,300,2013-02-19 21:15:00
3:35 PM,24.8,6.8,46,30.21,10.0,NW,18.4,33.4,N/A,,Clear,310,2013-02-19 21:35:00
3:55 PM,24.8,5.0,43,30.22,10.0,WNW,24.2,31.1,N/A,,Clear,300,2013-02-19 21:55:00
4:15 PM,24.8,6.8,46,30.23,10.0,NW,20.7,24.2,N/A,,Clear,310,2013-02-19 22:15:00
4:35 PM,24.8,6.8,46,30.22,10.0,NW,23.0,27.6,N/A,,Clear,310,2013-02-19 22:35:00
4:55 PM,24.8,6.8,46,30.22,10.0,NW,24.2,29.9,N/A,,Clear,310,2013-02-19 22:55:00
5:15 PM,23.0,5.0,46,30.23,10.0,NW,16.1,27.6,N/A,,Clear,310,2013-02-19 23:15:00
6:35 PM,19.4,6.8,58,30.24,10.0,NW,10.4,-,N/A,,Clear,310,2013-02-20 00:35:00
6:55 PM,19.4,6.8,58,30.25,10.0,NW,13.8,18.4,N/A,,Clear,310,2013-02-20 00:55:00
7:15 PM,17.6,6.8,63,30.26,10.0,NW,12.7,19.6,N/A,,Clear,310,2013-02-20 01:15:00
7:35 PM,17.6,6.8,63,30.26,10.0,NW,11.5,18.4,N/A,,Clear,310,2013-02-20 01:35:00
7:55 PM,17.6,6.8,63,30.27,10.0,NW,11.5,-,N/A,,Clear,310,2013-02-20 01:55:00
8:15 PM,17.6,6.8,63,30.26,10.0,NW,11.5,-,N/A,,Clear,310,2013-02-20 02:15:00
8:35 PM,15.8,6.8,68,30.27,10.0,WNW,8.1,-,N/A,,Clear,290,2013-02-20 02:35:00
8:55 PM,15.8,5.0,62,30.28,10.0,WNW,9.2,-,N/A,,Clear,290,2013-02-20 02:55:00
9:15 PM,15.8,6.8,68,30.28,10.0,WNW,9.2,-,N/A,,Clear,300,2013-02-20 03:15:00
9:35 PM,14.0,6.8,73,30.28,10.0,WNW,8.1,-,N/A,,Clear,300,2013-02-20 03:35:00
9:55 PM,14.0,6.8,73,30.29,10.0,WNW,9.2,-,N/A,,Clear,290,2013-02-20 03:55:00
10:15 PM,14.0,6.8,73,30.30,10.0,NW,11.5,-,N/A,,Clear,310,2013-02-20 04:15:00
10:35 PM,14.0,6.8,73,30.31,10.0,NW,12.7,-,N/A,,Clear,310,2013-02-20 04:35:00
10:55 PM,12.2,5.0,73,30.32,10.0,NW,12.7,-,N/A,,Clear,320,2013-02-20 04:55:00
11:15 PM,12.2,5.0,73,30.33,10.0,NW,10.4,16.1,N/A,,Clear,320,2013-02-20 05:15:00
11:35 PM,12.2,3.2,67,30.33,10.0,NW,13.8,18.4,N/A,,Clear,320,2013-02-20 05:35:00
11:55 PM,10.4,3.2,73,30.34,10.0,NW,11.5,-,N/A,,Clear,320,2013-02-20 05:55:00